| time (UTC) | temp F | wind direction | speed MPH | gust MPH | rain 1hr in | rain 24hr in | rain mn in | humidity % | barometer mb |
| 20260906113115 | 68 | 180 | 4.0 | 6.0 | 0.00 | 0.09 | 0.00 | 23 | 1025.5 |
| 20260906110115 | 68 | 147 | 5.0 | 7.0 | 0.00 | 0.09 | 0.00 | 23 | 1025.5 |
| 20260906103115 | 68 | 235 | 4.0 | 8.0 | 0.00 | 0.10 | 0.00 | 25 | 1025.5 |
| 20260906100115 | 67 | 275 | 3.0 | 6.0 | 0.00 | 0.10 | 0.00 | 27 | 1025.6 |
| 20260906093115 | 65 | 315 | 5.0 | 8.0 | 0.00 | 0.10 | 0.00 | 27 | 1025.6 |
| 20260906090115 | 63 | 324 | 5.0 | 8.0 | 0.00 | 0.10 | 0.00 | 31 | 1025.6 |
| 20260906083115 | 61 | 326 | 2.0 | 4.0 | 0.00 | 0.10 | 0.00 | 34 | 1025.7 |
| 20260906080115 | 60 | 297 | 4.0 | 6.0 | 0.00 | 0.10 | 0.00 | 37 | 1025.7 |
| 20260906073115 | 58 | 269 | 4.0 | 7.0 | 0.00 | 0.10 | 0.00 | 38 | 1025.7 |
| 20260906070115 | 56 | 307 | 5.0 | 7.0 | 0.00 | 0.10 | 0.00 | 44 | 1024.8 |
| 20260906063115 | 54 | 291 | 0.0 | 4.0 | 0.00 | 0.10 | 0.00 | 48 | 1024.8 |
| 20260906060134 | 53 | 243 | 0.0 | 5.0 | 0.00 | 0.10 | 0.00 | 52 | 1024.9 |
| 20260906053115 | 51 | 179 | 0.0 | 3.0 | 0.00 | 0.10 | 0.00 | 53 | 1024.9 |
| 20260906050135 | 51 | 197 | 2.0 | 4.0 | 0.00 | 0.10 | 0.00 | 53 | 1023.9 |
| 20260906043115 | 51 | 222 | 0.0 | 3.0 | 0.00 | 0.10 | 0.00 | 50 | 1023.9 |
| 20260906033115 | 53 | 333 | 3.0 | 7.0 | 0.00 | 0.10 | 0.00 | 50 | 1023.8 |
| 20260906030114 | 53 | 291 | 3.0 | 5.0 | 0.00 | 0.10 | 0.00 | 49 | 1023.8 |
| 20260906023114 | 54 | 280 | 4.0 | 6.0 | 0.00 | 0.10 | 0.00 | 48 | 1023.8 |
| 20260906020115 | 54 | 307 | 3.0 | 6.0 | 0.00 | 0.10 | 0.00 | 47 | 1023.8 |
| 20260906010115 | 55 | 314 | 4.0 | 6.0 | 0.00 | 0.10 | 0.00 | 46 | 1022.8 |
| 20260906003115 | 56 | 323 | 4.0 | 6.0 | 0.00 | 0.10 | 0.00 | 43 | 1022.8 |
| 20260906000115 | 56 | 260 | 6.0 | 12.0 | 0.00 | 0.10 | 0.00 | 42 | 1022.8 |
| 20260905233114 | 56 | 277 | 4.0 | 7.0 | 0.00 | 0.10 | 0.00 | 41 | 1022.8 |
| 20260905230114 | 56 | 277 | 4.0 | 7.0 | 0.00 | 0.10 | 0.00 | 40 | 1021.7 |
| 20260905220122 | 58 | 299 | 6.0 | 9.0 | 0.00 | 0.10 | 0.10 | 37 | 1021.7 |
| 20260905213114 | 59 | 328 | 6.0 | 8.0 | 0.00 | 0.10 | 0.10 | 36 | 1021.7 |
| 20260905210114 | 59 | 292 | 6.0 | 10.0 | 0.00 | 0.10 | 0.10 | 35 | 1020.7 |
| 20260905203115 | 60 | 294 | 7.0 | 8.0 | 0.00 | 0.10 | 0.10 | 35 | 1020.6 |
| 20260905200115 | 60 | 307 | 6.0 | 10.0 | 0.00 | 0.10 | 0.10 | 35 | 1020.6 |
| 20260905193115 | 61 | 260 | 5.0 | 9.0 | 0.00 | 0.10 | 0.10 | 35 | 1020.6 |
| 20260905190114 | 61 | 308 | 6.0 | 8.0 | 0.00 | 0.10 | 0.10 | 35 | 1019.6 |
| 20260905183114 | 61 | 300 | 6.0 | 10.0 | 0.00 | 0.10 | 0.10 | 35 | 1019.6 |
| 20260905180134 | 61 | 353 | 6.0 | 11.0 | 0.00 | 0.10 | 0.10 | 36 | 1019.6 |
| 20260905173114 | 62 | 316 | 11.0 | 15.0 | 0.00 | 0.10 | 0.10 | 36 | 1018.6 |
| 20260905170134 | 62 | 288 | 8.0 | 13.0 | 0.00 | 0.10 | 0.10 | 36 | 1018.6 |
| 20260905163114 | 62 | 314 | 6.0 | 9.0 | 0.02 | 0.13 | 0.10 | 44 | 1017.6 |
| 20260905160114 | 62 | 287 | 14.0 | 22.0 | 0.02 | 0.13 | 0.10 | 41 | 1017.6 |
| 20260905153114 | 65 | 291 | 8.0 | 13.0 | 0.01 | 0.26 | 0.08 | 35 | 1016.5 |
| 20260905150114 | 63 | 281 | 5.0 | 9.0 | 0.01 | 0.26 | 0.08 | 44 | 1016.5 |
| 20260905143114 | 66 | 281 | 12.0 | 17.0 | 0.00 | 0.34 | 0.06 | 32 | 1015.4 |
| 20260905140114 | 67 | 298 | 9.0 | 15.0 | 0.00 | 0.34 | 0.06 | 33 | 1016.4 |
| 20260905133114 | 66 | 309 | 8.0 | 15.0 | 0.03 | 0.40 | 0.06 | 36 | 1015.5 |
| 20260905130115 | 63 | 258 | 8.0 | 15.0 | 0.05 | 0.40 | 0.06 | 45 | 1015.5 |